createdAt,value
2018-06-21T00:01:16.956Z,6.53
2018-06-21T00:03:48.632Z,6.20
2018-06-21T00:06:19.792Z,7.00
2018-06-21T00:08:50.787Z,6.33
2018-06-21T00:11:22.506Z,6.80
2018-06-21T00:13:53.494Z,6.40
2018-06-21T00:16:24.675Z,6.70
2018-06-21T00:53:21.314Z,7.73
2018-06-21T00:56:02.645Z,6.40
2018-06-21T00:58:34.653Z,7.17
2018-06-21T01:01:05.772Z,7.23
2018-06-21T01:03:37.224Z,6.90
2018-06-21T01:06:08.309Z,6.67
2018-06-21T01:08:39.698Z,6.93
2018-06-21T01:11:10.939Z,7.13
2018-06-21T01:13:43.488Z,6.60
2018-06-21T01:16:14.649Z,6.80
2018-06-21T01:18:45.702Z,6.90
2018-06-21T01:21:17.777Z,7.00
2018-06-21T01:23:48.993Z,7.10
2018-06-21T01:26:20.419Z,7.27
2018-06-21T01:28:51.859Z,7.23
2018-06-21T01:31:22.699Z,6.80
2018-06-21T01:33:53.954Z,7.50
2018-06-21T01:36:25.060Z,6.40
2018-06-21T01:38:56.250Z,7.00
2018-06-21T01:41:27.252Z,7.00
2018-06-21T01:43:58.400Z,6.37
2018-06-21T01:46:29.528Z,6.40
2018-06-21T01:49:00.749Z,7.03
2018-06-21T01:51:31.816Z,6.53
2018-06-21T01:54:03.080Z,6.30
2018-06-21T01:56:34.154Z,6.87
2018-06-21T01:59:06.417Z,6.73
2018-06-21T02:01:37.542Z,7.10
2018-06-21T02:04:08.913Z,6.40
2018-06-21T02:06:40.102Z,7.00
2018-06-21T02:09:11.319Z,7.00
2018-06-21T02:11:42.218Z,6.97
2018-06-21T02:14:13.367Z,6.47
2018-06-21T02:16:44.595Z,6.90
2018-06-21T02:19:15.728Z,6.73
2018-06-21T02:21:46.738Z,6.30
2018-06-21T02:24:17.938Z,6.60
2018-06-21T02:26:48.884Z,6.30
2018-06-21T02:29:20.024Z,6.60
2018-06-21T02:31:51.166Z,7.03
2018-06-21T02:34:22.040Z,7.23
2018-06-21T02:36:53.361Z,6.87
2018-06-21T02:39:24.493Z,6.43
2018-06-21T02:41:55.556Z,7.73
2018-06-21T02:44:27.181Z,8.37
2018-06-21T02:46:58.473Z,6.57
2018-06-21T02:49:29.760Z,6.80
2018-06-21T02:52:01.159Z,6.90
2018-06-21T02:54:32.458Z,6.50
2018-06-21T02:57:03.550Z,7.23
2018-06-21T02:59:34.537Z,6.73
2018-06-21T03:02:05.613Z,6.77
2018-06-21T03:04:37.308Z,6.73
2018-06-21T03:07:08.658Z,7.00
2018-06-21T03:09:39.952Z,7.10
2018-06-21T03:12:15.781Z,6.80
2018-06-21T03:14:46.909Z,7.60
2018-06-21T03:17:18.044Z,7.47
2018-06-21T03:19:49.840Z,8.07
2018-06-21T03:22:20.768Z,7.20
2018-06-21T03:24:52.043Z,7.10
2018-06-21T03:27:23.231Z,6.97
2018-06-21T03:29:54.517Z,6.60
2018-06-21T03:32:25.874Z,6.87
2018-06-21T03:34:57.067Z,6.47
2018-06-21T03:37:28.037Z,8.07
2018-06-21T03:40:00.651Z,7.00
2018-06-21T03:42:32.165Z,6.70
2018-06-21T03:45:03.217Z,7.23
2018-06-21T03:47:34.348Z,6.90
2018-06-21T03:50:05.639Z,7.30
2018-06-21T03:52:36.853Z,8.33
2018-06-21T03:55:08.011Z,7.30
2018-06-21T03:57:38.881Z,7.90
2018-06-21T04:00:10.023Z,7.27
2018-06-21T04:02:41.126Z,6.80
2018-06-21T04:05:12.046Z,7.23
2018-06-21T04:07:43.307Z,7.37
2018-06-21T04:10:14.591Z,7.43
2018-06-21T04:12:45.857Z,7.17
2018-06-21T04:15:17.092Z,7.50
2018-06-21T04:17:48.066Z,6.83
2018-06-21T04:20:19.765Z,7.87
2018-06-21T04:22:50.875Z,7.30
2018-06-21T04:25:22.193Z,7.60
2018-06-21T04:27:54.136Z,8.07
2018-06-21T04:30:25.465Z,7.93
2018-06-21T04:32:56.470Z,7.80
2018-06-21T04:35:27.566Z,7.73
2018-06-21T04:37:58.732Z,7.80
2018-06-21T04:40:30.080Z,8.13
2018-06-21T04:43:01.289Z,8.47
2018-06-21T04:45:32.559Z,8.03
2018-06-21T04:48:03.554Z,7.20
2018-06-21T04:50:35.353Z,7.90
2018-06-21T04:53:07.208Z,8.00
2018-06-21T04:55:38.406Z,7.70
2018-06-21T04:58:09.082Z,8.10
2018-06-21T05:00:40.212Z,7.53
2018-06-21T05:03:11.239Z,7.27
2018-06-21T05:05:42.552Z,7.07
2018-06-21T05:08:14.939Z,6.40
2018-06-21T05:10:46.029Z,6.50
2018-06-21T05:13:17.074Z,6.20
2018-06-21T05:15:48.204Z,6.90
2018-06-21T05:18:19.319Z,6.80
2018-06-21T05:20:50.476Z,6.97
2018-06-21T05:23:22.180Z,7.13
2018-06-21T05:25:53.622Z,7.35
2018-06-21T05:28:24.702Z,6.30
2018-06-21T05:30:56.010Z,7.07
2018-06-21T05:33:27.276Z,6.83
2018-06-21T05:35:58.477Z,6.83
2018-06-21T05:38:29.755Z,8.03
2018-06-21T05:41:01.612Z,7.50
2018-06-21T05:43:33.209Z,7.80
2018-06-21T05:46:04.506Z,7.60
2018-06-21T05:48:36.399Z,7.37
2018-06-21T05:51:07.723Z,7.60
2018-06-21T05:53:38.697Z,7.83
2018-06-21T05:56:09.980Z,7.30
2018-06-21T05:58:41.374Z,7.63
2018-06-21T06:01:12.480Z,7.77
2018-06-21T06:03:43.927Z,8.70
2018-06-21T06:06:14.901Z,8.10
2018-06-21T06:08:46.091Z,8.10
2018-06-21T06:11:17.177Z,8.85
2018-06-21T06:13:48.126Z,7.55
2018-06-21T06:16:19.960Z,7.08
2018-06-21T06:18:51.116Z,8.00
2018-06-21T06:21:22.561Z,8.15
2018-06-21T06:23:53.912Z,8.20
2018-06-21T06:26:25.085Z,7.35
2018-06-21T06:28:56.069Z,7.15
2018-06-21T06:31:27.144Z,6.78
2018-06-21T06:33:58.308Z,7.10
2018-06-21T06:36:29.509Z,7.90
2018-06-21T06:39:18.033Z,8.18
2018-06-21T06:41:51.013Z,7.78
2018-06-21T06:44:22.178Z,7.33
2018-06-21T06:46:53.285Z,7.70
2018-06-21T06:49:24.290Z,8.03
2018-06-21T06:51:55.315Z,7.58
2018-06-21T06:54:26.849Z,8.03
2018-06-21T06:56:58.933Z,7.72
2018-06-21T06:59:30.060Z,7.55
2018-06-21T07:02:02.319Z,7.28
2018-06-21T07:04:33.554Z,6.45
2018-06-21T07:07:04.701Z,7.15
2018-06-21T07:09:35.585Z,7.12
2018-06-21T07:12:06.577Z,7.20
2018-06-21T07:14:37.712Z,6.80
2018-06-21T07:17:09.945Z,6.58
2018-06-21T07:19:41.311Z,7.30
2018-06-21T07:22:12.571Z,6.15
2018-06-21T07:24:43.575Z,6.83
2018-06-21T07:27:14.775Z,7.22
2018-06-21T07:29:45.748Z,6.92
2018-06-21T07:32:16.764Z,6.22
2018-06-21T07:34:47.985Z,6.55
2018-06-21T07:37:19.125Z,6.50
2018-06-21T07:39:51.022Z,7.33
2018-06-21T07:42:22.045Z,6.90
2018-06-21T07:44:53.336Z,7.35
2018-06-21T07:47:24.543Z,8.43
2018-06-21T07:49:55.508Z,8.65
2018-06-21T07:52:26.717Z,9.97
2018-06-21T07:54:57.951Z,9.13
2018-06-21T07:57:29.152Z,9.73
2018-06-21T08:00:00.391Z,10.00
2018-06-21T08:02:31.586Z,10.47
2018-06-21T08:05:03.400Z,10.90
2018-06-21T08:07:34.661Z,10.57
2018-06-21T08:10:05.714Z,10.40
2018-06-21T08:12:36.925Z,10.60
2018-06-21T08:15:07.777Z,10.27
2018-06-21T08:17:39.077Z,10.73
2018-06-21T08:20:10.101Z,11.60
2018-06-21T08:22:41.384Z,11.80
2018-06-21T08:25:12.894Z,12.20
2018-06-21T08:27:44.156Z,12.10
2018-06-21T08:30:15.129Z,12.50
2018-06-21T08:32:46.341Z,12.10
2018-06-21T08:35:17.674Z,11.97
2018-06-21T08:37:50.365Z,12.13
2018-06-21T08:40:21.284Z,11.23
2018-06-21T08:42:52.251Z,11.80
2018-06-21T08:45:23.360Z,11.50
2018-06-21T08:47:54.340Z,11.80
2018-06-21T08:50:25.653Z,12.13
2018-06-21T08:52:56.928Z,11.27
2018-06-21T08:55:28.139Z,10.77
2018-06-21T08:57:59.249Z,12.03
2018-06-21T09:00:30.375Z,13.00
2018-06-21T09:03:01.443Z,11.93
2018-06-21T09:05:32.544Z,12.50
2018-06-21T09:08:03.573Z,12.00
2018-06-21T09:10:34.638Z,12.30
2018-06-21T09:13:05.822Z,11.77
2018-06-21T09:15:36.906Z,12.20
2018-06-21T09:18:08.578Z,11.90
2018-06-21T09:20:39.929Z,12.80
2018-06-21T09:23:11.325Z,11.00
2018-06-21T09:25:42.573Z,11.60
2018-06-21T09:28:13.899Z,11.50
2018-06-21T09:30:44.920Z,11.07
2018-06-21T09:33:16.250Z,11.30
2018-06-21T09:35:47.463Z,10.73
2018-06-21T09:38:23.338Z,10.70
2018-06-21T09:40:59.177Z,10.60
2018-06-21T09:43:34.829Z,10.70
2018-06-21T09:46:10.934Z,12.47
2018-06-21T09:48:45.954Z,12.50
2018-06-21T09:51:16.922Z,10.07
2018-06-21T09:53:47.775Z,10.57
2018-06-21T09:56:19.445Z,10.80
2018-06-21T09:58:51.532Z,11.33
2018-06-21T10:01:22.554Z,11.10
2018-06-21T10:03:53.697Z,10.60
2018-06-21T10:06:24.801Z,11.10
2018-06-21T10:08:56.138Z,10.70
2018-06-21T10:11:27.287Z,11.53
2018-06-21T10:13:58.837Z,10.23
2018-06-21T10:16:29.820Z,11.77
2018-06-21T10:19:01.261Z,10.90
2018-06-21T10:21:32.412Z,11.93
2018-06-21T10:24:04.445Z,10.50
2018-06-21T10:26:35.728Z,11.53
2018-06-21T10:29:07.010Z,11.40
2018-06-21T10:31:38.935Z,10.50
2018-06-21T10:34:10.159Z,10.60
2018-06-21T10:36:41.430Z,11.83
2018-06-21T10:39:13.340Z,10.40
2018-06-21T10:41:44.444Z,12.00
2018-06-21T10:44:16.035Z,11.97
2018-06-21T10:46:47.290Z,12.37
2018-06-21T10:49:18.701Z,16.57
2018-06-21T10:51:49.758Z,12.90
2018-06-21T10:54:21.201Z,11.20
2018-06-21T10:56:52.442Z,11.80
2018-06-21T10:59:23.586Z,10.87
2018-06-21T11:01:54.666Z,11.50
2018-06-21T11:04:25.679Z,10.03
2018-06-21T11:06:56.574Z,10.87
2018-06-21T11:09:28.313Z,11.73
2018-06-21T11:11:59.446Z,10.70
2018-06-21T11:14:30.578Z,11.13
2018-06-21T11:17:01.906Z,10.97
2018-06-21T11:19:33.186Z,10.90
2018-06-21T11:22:04.194Z,10.90
2018-06-21T11:24:35.229Z,10.67
2018-06-21T11:27:07.194Z,11.00
2018-06-21T11:29:38.893Z,11.30
2018-06-21T11:32:11.015Z,12.40
2018-06-21T11:34:42.402Z,13.30
2018-06-21T11:37:14.389Z,11.47
2018-06-21T11:39:45.829Z,11.97
2018-06-21T11:42:16.910Z,10.80
2018-06-21T11:44:47.904Z,11.20
2018-06-21T11:47:18.971Z,12.63
2018-06-21T11:49:50.265Z,11.97
2018-06-21T11:52:21.632Z,11.40
2018-06-21T11:54:52.905Z,10.70
2018-06-21T11:57:23.912Z,12.33
2018-06-21T11:59:55.096Z,12.33
2018-06-21T12:02:26.468Z,11.00
2018-06-21T12:04:57.886Z,12.63
2018-06-21T12:07:28.955Z,12.30
2018-06-21T12:10:00.240Z,11.80
2018-06-21T12:12:31.503Z,12.30
2018-06-21T12:15:02.629Z,12.10
2018-06-21T12:17:33.826Z,12.30
2018-06-21T12:20:04.842Z,11.63
2018-06-21T12:22:35.984Z,13.00
2018-06-21T12:25:07.668Z,11.90
2018-06-21T12:27:38.729Z,12.53
2018-06-21T12:30:10.002Z,13.73
2018-06-21T12:32:41.031Z,11.40
2018-06-21T12:35:12.250Z,13.00
2018-06-21T12:37:43.361Z,11.70
2018-06-21T12:40:14.429Z,12.80
2018-06-21T12:42:45.646Z,12.40
2018-06-21T12:45:17.038Z,13.40
2018-06-21T12:47:48.132Z,12.50
2018-06-21T12:50:19.346Z,12.30
2018-06-21T12:52:50.692Z,13.50
2018-06-21T12:55:22.137Z,12.13
2018-06-21T12:57:53.370Z,12.60
2018-06-21T13:00:24.597Z,12.30
2018-06-21T13:02:56.875Z,12.07
2018-06-21T13:05:28.123Z,12.17
2018-06-21T13:07:59.753Z,12.50
2018-06-21T13:10:41.341Z,12.07
2018-06-21T13:13:30.008Z,12.43
2018-06-21T13:16:00.854Z,11.73
2018-06-21T13:18:32.076Z,12.63
2018-06-21T13:21:03.105Z,11.93
2018-06-21T13:23:34.199Z,12.10
2018-06-21T13:26:05.536Z,12.70
2018-06-21T13:28:37.824Z,12.93
2018-06-21T13:31:09.791Z,12.70
2018-06-21T13:33:40.797Z,11.10
2018-06-21T13:36:12.097Z,11.90
2018-06-21T13:38:44.227Z,12.30
2018-06-21T13:41:15.451Z,12.23
2018-06-21T13:43:46.532Z,13.10
2018-06-21T13:46:17.896Z,12.40
2018-06-21T13:48:50.026Z,12.50
2018-06-21T13:51:21.310Z,13.40
2018-06-21T13:53:52.522Z,12.00
2018-06-21T13:56:23.750Z,12.23
2018-06-21T13:58:56.990Z,13.40
2018-06-21T14:01:28.337Z,13.13
2018-06-21T14:03:59.446Z,13.53
2018-06-21T14:06:30.617Z,12.30
2018-06-21T14:09:01.733Z,12.20
2018-06-21T14:11:33.126Z,12.87
2018-06-21T14:14:04.321Z,12.90
2018-06-21T14:16:37.700Z,12.80
2018-06-21T14:19:14.016Z,12.60
2018-06-21T14:21:45.386Z,14.00
2018-06-21T14:24:16.734Z,12.37
2018-06-21T14:26:47.964Z,14.43
2018-06-21T14:29:18.976Z,17.17
2018-06-21T14:31:50.074Z,13.60
2018-06-21T14:34:21.173Z,17.70
2018-06-21T14:36:53.495Z,15.90
2018-06-21T14:39:35.020Z,14.50
2018-06-21T14:42:12.110Z,12.63
2018-06-21T14:44:43.327Z,12.50
2018-06-21T14:47:14.906Z,13.00
2018-06-21T14:49:46.284Z,12.63
2018-06-21T14:52:17.666Z,13.33
2018-06-21T14:54:49.641Z,11.63
2018-06-21T14:57:21.559Z,12.27
2018-06-21T14:59:52.893Z,12.23
2018-06-21T15:02:23.984Z,13.37
2018-06-21T15:04:54.960Z,13.67
2018-06-21T15:07:26.235Z,12.70
2018-06-21T15:09:57.417Z,11.37
2018-06-21T15:12:28.463Z,10.50
2018-06-21T15:14:59.733Z,10.67
2018-06-21T15:17:31.247Z,11.27
2018-06-21T15:20:02.466Z,12.13
2018-06-21T15:22:33.845Z,11.37
2018-06-21T15:25:04.752Z,12.30
2018-06-21T15:27:35.914Z,11.40
2018-06-21T15:30:06.887Z,12.60
2018-06-21T15:32:38.289Z,13.40
2018-06-21T15:35:09.215Z,12.03
2018-06-21T15:37:40.489Z,13.17
2018-06-21T15:40:16.109Z,12.87
2018-06-21T15:42:48.120Z,12.07
2018-06-21T15:45:19.647Z,12.77
2018-06-21T15:47:50.912Z,13.17
2018-06-21T15:50:21.995Z,11.10
2018-06-21T15:52:54.057Z,10.77
2018-06-21T15:55:25.167Z,10.90
2018-06-21T15:57:56.437Z,10.30
2018-06-21T16:00:27.499Z,11.53
2018-06-21T16:02:58.505Z,11.10
2018-06-21T16:05:30.174Z,10.90
2018-06-21T16:08:01.326Z,10.53
2018-06-21T16:10:33.247Z,11.53
2018-06-21T16:13:04.551Z,10.80
2018-06-21T16:15:38.851Z,11.27
2018-06-21T16:18:10.315Z,11.33
2018-06-21T16:20:41.808Z,12.50
2018-06-21T16:23:13.501Z,11.20
2018-06-21T16:25:44.453Z,12.57
2018-06-21T16:28:15.999Z,11.73
2018-06-21T16:30:47.195Z,10.93
2018-06-21T16:33:18.295Z,12.20
2018-06-21T16:35:49.461Z,11.27
2018-06-21T16:38:20.719Z,10.73
2018-06-21T16:40:51.831Z,11.53
2018-06-21T16:43:22.973Z,11.10
2018-06-21T16:45:53.972Z,11.63
2018-06-21T16:48:25.309Z,11.03
2018-06-21T16:50:56.366Z,10.63
2018-06-21T16:53:27.665Z,11.50
2018-06-21T16:55:58.860Z,11.50
2018-06-21T16:58:30.039Z,12.10
2018-06-21T17:01:01.303Z,11.40
2018-06-21T17:03:33.873Z,11.07
2018-06-21T17:06:05.068Z,12.07
2018-06-21T17:08:35.899Z,11.63
2018-06-21T17:11:07.267Z,12.03
2018-06-21T17:13:38.351Z,11.60
2018-06-21T17:16:09.534Z,11.63
2018-06-21T17:18:41.647Z,12.37
2018-06-21T17:21:12.774Z,11.37
2018-06-21T17:23:44.169Z,12.40
2018-06-21T17:26:15.268Z,13.13
2018-06-21T17:28:46.442Z,12.23
2018-06-21T17:31:17.921Z,12.93
2018-06-21T17:33:49.403Z,14.03
2018-06-21T17:36:20.565Z,12.87
2018-06-21T17:38:51.877Z,14.17
2018-06-21T17:41:23.939Z,13.57
2018-06-21T17:43:55.208Z,12.77
2018-06-21T17:46:26.411Z,12.97
2018-06-21T17:48:58.516Z,13.00
2018-06-21T17:51:29.887Z,13.50
2018-06-21T17:54:01.281Z,12.97
2018-06-21T17:56:32.571Z,12.53
2018-06-21T17:59:03.675Z,12.10
2018-06-21T18:01:34.637Z,12.13
2018-06-21T18:04:05.723Z,13.70
2018-06-21T18:06:36.695Z,12.70
2018-06-21T18:09:09.244Z,13.10
2018-06-21T18:11:40.220Z,12.60
2018-06-21T18:14:11.325Z,11.10
2018-06-21T18:16:42.765Z,11.90
2018-06-21T18:19:18.547Z,12.13
2018-06-21T18:22:06.133Z,12.20
2018-06-21T18:24:56.039Z,11.00
2018-06-21T18:27:40.430Z,12.90
2018-06-21T18:30:17.869Z,11.63
2018-06-21T18:32:52.713Z,12.43
2018-06-21T18:35:28.883Z,13.10
2018-06-21T18:38:03.484Z,13.30
2018-06-21T18:40:38.429Z,13.37
2018-06-21T18:43:10.756Z,12.90
2018-06-21T18:47:11.141Z,12.40
2018-06-21T18:49:42.580Z,12.97
2018-06-21T18:52:13.857Z,12.70
2018-06-21T18:54:45.201Z,12.80
2018-06-21T18:57:16.588Z,12.83
2018-06-21T18:59:47.622Z,12.70
2018-06-21T19:02:18.823Z,13.33
2018-06-21T19:04:49.908Z,12.60
2018-06-21T19:07:26.196Z,12.50
2018-06-21T19:10:02.308Z,12.00
2018-06-21T19:12:33.411Z,12.03
2018-06-21T19:15:04.917Z,13.40
2018-06-21T19:17:36.522Z,11.57
2018-06-21T19:20:07.512Z,12.33
2018-06-21T19:22:38.659Z,12.00
2018-06-21T19:25:09.624Z,12.50
2018-06-21T19:27:41.192Z,11.40
2018-06-21T19:30:12.129Z,11.73
2018-06-21T19:32:43.113Z,12.03
2018-06-21T19:35:14.278Z,11.37
2018-06-21T19:37:45.626Z,12.10
2018-06-21T19:40:16.719Z,12.40
2018-06-21T19:42:47.706Z,11.70
2018-06-21T19:45:19.449Z,11.73
2018-06-21T19:47:50.682Z,11.43
2018-06-21T19:50:21.748Z,11.40
2018-06-21T19:52:52.839Z,11.60
2018-06-21T19:55:24.904Z,11.37
2018-06-21T19:57:55.747Z,11.03
2018-06-21T20:00:26.885Z,11.10
2018-06-21T20:03:00.930Z,10.60
2018-06-21T20:05:31.972Z,11.73
2018-06-21T20:08:03.249Z,10.90
2018-06-21T20:10:34.252Z,11.10
2018-06-21T20:13:05.611Z,12.80
2018-06-21T20:15:54.432Z,10.90
2018-06-21T20:18:26.554Z,12.07
2018-06-21T20:21:01.014Z,10.63
2018-06-21T20:23:32.448Z,11.87
2018-06-21T20:26:03.832Z,11.40
2018-06-21T20:28:37.450Z,11.60
2018-06-21T20:31:09.877Z,11.17
2018-06-21T20:33:42.631Z,10.97
2018-06-21T20:36:15.019Z,11.03
2018-06-21T20:38:46.614Z,11.67
2018-06-21T20:41:18.024Z,13.30
2018-06-21T20:43:49.748Z,11.10
2018-06-21T20:46:22.029Z,10.77
2018-06-21T20:48:53.245Z,10.43
2018-06-21T20:51:24.726Z,10.70
2018-06-21T20:53:56.331Z,10.43
2018-06-21T20:56:27.661Z,10.90
2018-06-21T20:58:59.164Z,10.83
2018-06-21T21:01:30.421Z,11.43
2018-06-21T21:04:01.891Z,10.73
2018-06-21T21:06:33.357Z,11.80
2018-06-21T21:09:08.138Z,11.50
2018-06-21T21:11:40.661Z,11.10
2018-06-21T21:14:27.612Z,11.20
2018-06-21T21:17:01.677Z,11.43
2018-06-21T21:19:32.793Z,10.90
2018-06-21T21:22:04.095Z,10.70
2018-06-21T21:24:35.410Z,10.60
2018-06-21T21:27:07.735Z,10.70
2018-06-21T21:29:40.103Z,11.60
2018-06-21T21:32:13.794Z,11.23
2018-06-21T21:34:45.953Z,10.77
2018-06-21T21:37:17.097Z,10.70
2018-06-21T21:39:48.327Z,12.63
2018-06-21T21:42:20.386Z,10.87
2018-06-21T21:44:51.209Z,11.13
2018-06-21T21:47:24.043Z,11.70
2018-06-21T21:50:06.181Z,11.30
2018-06-21T21:52:37.407Z,10.23
2018-06-21T21:55:08.752Z,10.63
2018-06-21T21:57:39.743Z,10.90
2018-06-21T22:00:48.547Z,11.13
2018-06-21T22:03:19.806Z,10.63
2018-06-21T22:05:50.705Z,11.47
2018-06-21T22:08:22.816Z,11.00
2018-06-21T22:10:54.836Z,10.80
2018-06-21T22:13:26.014Z,10.80
2018-06-21T22:15:58.502Z,11.00
2018-06-21T22:18:30.295Z,10.50
2018-06-21T22:21:01.258Z,11.30
2018-06-21T22:23:32.597Z,10.60
2018-06-21T22:26:03.851Z,11.20
2018-06-21T22:28:35.800Z,11.40
2018-06-21T22:31:07.641Z,11.20
2018-06-21T22:33:38.754Z,11.67
2018-06-21T22:36:10.947Z,11.80
2018-06-21T22:38:42.323Z,11.20
2018-06-21T22:41:14.931Z,10.50
2018-06-21T22:43:48.051Z,11.10
2018-06-21T22:46:21.311Z,11.97
2018-06-21T22:48:52.586Z,10.10
2018-06-21T22:51:23.561Z,11.10
2018-06-21T22:53:55.852Z,10.93
2018-06-21T22:56:28.765Z,11.20
2018-06-21T22:59:01.209Z,11.17
2018-06-21T23:01:33.979Z,11.60
2018-06-21T23:04:05.130Z,11.40
2018-06-21T23:06:36.696Z,10.67
2018-06-21T23:09:09.510Z,11.00
2018-06-21T23:11:42.907Z,11.17
2018-06-21T23:14:14.352Z,11.37
2018-06-21T23:16:47.433Z,11.47
2018-06-21T23:19:30.437Z,10.67
2018-06-21T23:22:02.799Z,11.50
2018-06-21T23:24:33.924Z,11.83
2018-06-21T23:27:06.482Z,11.03
2018-06-21T23:29:37.478Z,10.73
2018-06-21T23:32:09.494Z,11.13
2018-06-21T23:34:43.340Z,9.93
2018-06-21T23:37:16.898Z,10.20
2018-06-21T23:39:48.011Z,10.27
2018-06-21T23:42:19.491Z,10.23
2018-06-21T23:44:50.615Z,10.93
2018-06-21T23:47:22.026Z,10.40
2018-06-21T23:49:53.110Z,10.47
2018-06-21T23:52:24.595Z,10.30
2018-06-21T23:54:55.902Z,11.13
2018-06-21T23:57:27.950Z,11.40
2018-06-21T23:59:59.966Z,11.47
